Terminal Aerodrome Forecast
Issued by NWS

Home | Current Version | Previous Version | Graphics & Text | Print | Product List | Glossary On
Versions: 1 2 3 4 5 6 7 8 9 10 11 12 13 14 15 16 17 18 19 20
000
FTUS43 KMPX 241906 AAA
TAFRNH
TAF AMD
KRNH 241906Z 2419/2518 13008KT P6SM -RA SCT020 OVC030
     FM242100 07005KT 4SM -RA BR SCT009 OVC016
     FM250600 VRB03KT 3SM -DZ BR OVC007
     FM251600 25004KT P6SM OVC010=

USA.gov is the U.S. government's official web portal to all federal, state and local government web resources and services.